Time,TemperatureF,DewpointF,PressureIn,WindDirection,WindDirectionDegrees,WindSpeedMPH,WindSpeedGustMPH,Humidity,HourlyPrecipIn,Conditions,Clouds,dailyrainin,SoftwareType,DateUTC
2013-01-18 00:14:00,32.2,32.0,30.18,SSE,162,0.0,0.0,97,0.01,,,0.53,weatherlink.com 1.10,2013-01-18 05:14:00,
2013-01-18 00:29:00,32.1,31.0,30.19,WNW,292,2.0,2.0,97,0.02,,,0.00,weatherlink.com 1.10,2013-01-18 05:29:00,
2013-01-18 00:44:00,32.4,32.0,30.20,SW,235,0.0,1.0,97,0.02,,,0.00,weatherlink.com 1.10,2013-01-18 05:44:00,
2013-01-18 00:59:00,32.2,32.0,30.20,NW,311,1.0,2.0,97,0.01,,,0.00,weatherlink.com 1.10,2013-01-18 05:59:00,
2013-01-18 01:14:00,32.1,31.0,30.20,WNW,286,2.0,4.0,97,0.02,,,0.01,weatherlink.com 1.10,2013-01-18 06:14:00,
2013-01-18 01:29:00,32.3,32.0,30.21,WNW,292,1.0,3.0,97,0.01,,,0.01,weatherlink.com 1.10,2013-01-18 06:29:00,
2013-01-18 01:44:00,32.3,32.0,30.23,WNW,290,0.0,6.0,97,0.01,,,0.01,weatherlink.com 1.10,2013-01-18 06:44:00,
2013-01-18 02:00:00,32.1,31.0,30.24,WNW,282,0.0,2.0,96,0.01,,,0.01,weatherlink.com 1.10,2013-01-18 07:00:00,
2013-01-18 02:15:00,32.0,31.0,30.24,NW,304,1.0,3.0,96,0.01,,,0.02,weatherlink.com 1.10,2013-01-18 07:15:00,
2013-01-18 02:30:00,32.4,31.0,30.25,WNW,290,2.0,8.0,94,0.01,,,0.02,weatherlink.com 1.10,2013-01-18 07:30:00,
2013-01-18 02:45:00,32.1,31.0,30.25,WNW,296,2.0,2.0,94,0.01,,,0.02,weatherlink.com 1.10,2013-01-18 07:45:00,
2013-01-18 03:00:00,32.0,31.0,30.26,WNW,284,2.0,3.0,94,0.02,,,0.03,weatherlink.com 1.10,2013-01-18 08:00:00,
2013-01-18 03:15:00,31.9,30.0,30.26,West,276,1.0,4.0,92,0.01,,,0.03,weatherlink.com 1.10,2013-01-18 08:15:00,
2013-01-18 03:30:00,31.9,30.0,30.26,WSW,238,5.0,7.0,91,0.01,,,0.03,weatherlink.com 1.10,2013-01-18 08:30:00,
2013-01-18 03:45:00,31.9,29.0,30.27,West,267,0.0,3.0,90,0.01,,,0.03,weatherlink.com 1.10,2013-01-18 08:45:00,
2013-01-18 04:00:00,32.1,29.0,30.27,West,267,0.0,0.0,88,0.01,,,0.04,weatherlink.com 1.10,2013-01-18 09:00:00,
2013-01-18 04:15:00,31.8,29.0,30.28,West,275,0.0,0.0,89,0.01,,,0.04,weatherlink.com 1.10,2013-01-18 09:15:00,
2013-01-18 04:30:00,31.4,29.0,30.29,NW,323,0.0,0.0,89,0.01,,,0.04,weatherlink.com 1.10,2013-01-18 09:30:00,
2013-01-18 04:45:00,30.7,28.0,30.30,North,355,0.0,0.0,90,0.01,,,0.04,weatherlink.com 1.10,2013-01-18 09:45:00,
2013-01-18 05:00:00,30.2,28.0,30.30,North,355,0.0,0.0,92,0.00,,,0.04,weatherlink.com 1.10,2013-01-18 10:00:00,
2013-01-18 05:15:00,29.8,28.0,30.30,North,355,0.0,0.0,93,0.01,,,0.05,weatherlink.com 1.10,2013-01-18 10:15:00,
2013-01-18 05:30:00,29.5,28.0,30.31,North,355,0.0,0.0,93,0.01,,,0.05,weatherlink.com 1.10,2013-01-18 10:30:00,
2013-01-18 05:45:00,28.8,27.0,30.32,North,355,0.0,0.0,93,0.01,,,0.05,weatherlink.com 1.10,2013-01-18 10:45:00,
2013-01-18 06:00:00,28.1,27.0,30.32,North,355,0.0,0.0,94,0.01,,,0.05,weatherlink.com 1.10,2013-01-18 11:00:00,
2013-01-18 06:15:00,27.9,27.0,30.34,NW,312,0.0,0.0,95,0.00,,,0.05,weatherlink.com 1.10,2013-01-18 11:15:00,
2013-01-18 06:30:00,28.0,27.0,30.34,NW,312,0.0,0.0,95,0.01,,,0.06,weatherlink.com 1.10,2013-01-18 11:30:00,
2013-01-18 06:45:00,28.0,27.0,30.35,SSW,197,0.0,0.0,95,0.01,,,0.06,weatherlink.com 1.10,2013-01-18 11:45:00,
2013-01-18 07:00:00,28.2,27.0,30.36,SSW,197,0.0,0.0,95,0.01,,,0.06,weatherlink.com 1.10,2013-01-18 12:00:00,
2013-01-18 07:15:00,28.2,27.0,30.37,SSW,197,0.0,0.0,95,0.01,,,0.06,weatherlink.com 1.10,2013-01-18 12:15:00,
2013-01-18 07:30:00,27.9,27.0,30.38,SSW,197,0.0,0.0,95,0.00,,,0.06,weatherlink.com 1.10,2013-01-18 12:30:00,
2013-01-18 07:45:00,27.7,27.0,30.38,SSW,197,0.0,0.0,95,0.00,,,0.06,weatherlink.com 1.10,2013-01-18 12:45:00,
2013-01-18 08:00:00,27.6,26.0,30.39,SSW,197,0.0,0.0,95,0.00,,,0.06,weatherlink.com 1.10,2013-01-18 13:00:00,
2013-01-18 08:15:00,27.9,27.0,30.41,NW,325,0.0,0.0,95,0.00,,,0.06,weatherlink.com 1.10,2013-01-18 13:15:00,
2013-01-18 08:30:00,28.5,27.0,30.42,NW,322,0.0,0.0,95,0.00,,,0.06,weatherlink.com 1.10,2013-01-18 13:30:00,
2013-01-18 08:46:00,29.4,28.0,30.43,NW,314,0.0,0.0,93,0.00,,,0.06,weatherlink.com 1.10,2013-01-18 13:46:00,
2013-01-18 09:01:00,30.2,28.0,30.44,NW,314,0.0,0.0,92,0.00,,,0.06,weatherlink.com 1.10,2013-01-18 14:01:00,
2013-01-18 09:17:00,31.6,29.0,30.45,NW,314,0.0,0.0,91,0.00,,,0.06,weatherlink.com 1.10,2013-01-18 14:17:00,
2013-01-18 09:31:00,32.4,30.0,30.47,WNW,300,0.0,0.0,90,0.00,,,0.06,weatherlink.com 1.10,2013-01-18 14:31:00,
2013-01-18 09:46:00,33.0,30.0,30.48,WNW,299,0.0,0.0,88,0.00,,,0.06,weatherlink.com 1.10,2013-01-18 14:46:00,
2013-01-18 10:01:00,33.5,30.0,30.49,WNW,297,0.0,0.0,88,0.00,,,0.06,weatherlink.com 1.10,2013-01-18 15:01:00,
2013-01-18 10:16:00,35.2,30.0,30.50,NNW,342,0.0,5.0,81,0.00,,,0.06,weatherlink.com 1.10,2013-01-18 15:16:00,
2013-01-18 10:31:00,36.8,31.0,30.50,NW,315,2.0,4.0,80,0.00,,,0.06,weatherlink.com 1.10,2013-01-18 15:31:00,
2013-01-18 10:46:00,37.0,30.0,30.50,West,276,1.0,4.0,76,0.00,,,0.06,weatherlink.com 1.10,2013-01-18 15:46:00,
2013-01-18 11:01:00,36.9,31.0,30.50,NW,311,0.0,4.0,79,0.03,,,0.09,weatherlink.com 1.10,2013-01-18 16:01:00,
2013-01-18 11:16:00,37.5,30.0,30.50,North,360,0.0,4.0,75,0.06,,,0.12,weatherlink.com 1.10,2013-01-18 16:16:00,
2013-01-18 11:31:00,37.8,30.0,30.50,West,273,3.0,4.0,73,0.09,,,0.15,weatherlink.com 1.10,2013-01-18 16:31:00,
2013-01-18 11:46:00,38.4,30.0,30.50,North,360,2.0,4.0,71,0.12,,,0.18,weatherlink.com 1.10,2013-01-18 16:46:00,
2013-01-18 12:01:00,39.4,31.0,30.50,WNW,300,3.0,4.0,71,0.13,,,0.22,weatherlink.com 1.10,2013-01-18 17:01:00,
2013-01-18 12:16:00,40.1,29.0,30.50,West,264,1.0,5.0,65,0.14,,,0.26,weatherlink.com 1.10,2013-01-18 17:16:00,
2013-01-18 12:31:00,41.3,29.0,30.49,North,355,1.0,5.0,62,0.15,,,0.30,weatherlink.com 1.10,2013-01-18 17:31:00,
2013-01-18 12:46:00,41.3,28.0,30.49,WNW,287,4.0,5.0,60,0.17,,,0.35,weatherlink.com 1.10,2013-01-18 17:46:00,
2013-01-18 13:01:00,41.6,28.0,30.49,NW,312,3.0,6.0,58,0.18,,,0.40,weatherlink.com 1.10,2013-01-18 18:01:00,
2013-01-18 13:16:00,41.7,28.0,30.48,SSW,213,3.0,6.0,58,0.18,,,0.44,weatherlink.com 1.10,2013-01-18 18:16:00,
2013-01-18 13:31:00,42.3,28.0,30.48,WSW,245,1.0,5.0,57,0.17,,,0.48,weatherlink.com 1.10,2013-01-18 18:31:00,
2013-01-18 13:46:00,42.8,27.0,30.49,NE,36,0.0,6.0,55,0.17,,,0.52,weatherlink.com 1.10,2013-01-18 18:46:00,
2013-01-18 14:01:00,43.2,27.0,30.49,West,276,2.0,5.0,53,0.16,,,0.56,weatherlink.com 1.10,2013-01-18 19:01:00,
2013-01-18 14:16:00,42.7,29.0,30.49,WNW,293,2.0,3.0,58,0.15,,,0.59,weatherlink.com 1.10,2013-01-18 19:16:00,
2013-01-18 14:31:00,42.9,28.0,30.49,NW,317,2.0,5.0,57,0.14,,,0.62,weatherlink.com 1.10,2013-01-18 19:31:00,
2013-01-18 14:46:00,43.5,29.0,30.49,NW,313,1.0,4.0,56,0.13,,,0.65,weatherlink.com 1.10,2013-01-18 19:46:00,
2013-01-18 15:01:00,43.5,27.0,30.49,West,268,2.0,5.0,52,0.12,,,0.68,weatherlink.com 1.10,2013-01-18 20:01:00,
2013-01-18 15:16:00,42.3,26.0,30.49,SW,227,1.0,7.0,52,0.11,,,0.70,weatherlink.com 1.10,2013-01-18 20:16:00,
2013-01-18 15:31:00,42.3,25.0,30.49,NNW,332,1.0,4.0,51,0.09,,,0.71,weatherlink.com 1.10,2013-01-18 20:31:00,
2013-01-18 15:46:00,42.4,25.0,30.49,SW,231,0.0,4.0,51,0.08,,,0.73,weatherlink.com 1.10,2013-01-18 20:46:00,
2013-01-18 16:01:00,41.7,25.0,30.50,NW,305,2.0,4.0,52,0.06,,,0.74,weatherlink.com 1.10,2013-01-18 21:01:00,
2013-01-18 16:16:00,41.4,28.0,30.50,West,264,1.0,4.0,59,0.05,,,0.75,weatherlink.com 1.10,2013-01-18 21:16:00,
2013-01-18 16:31:00,40.5,25.0,30.51,SW,219,0.0,4.0,54,0.04,,,0.75,weatherlink.com 1.10,2013-01-18 21:31:00,
2013-01-18 17:02:00,38.8,25.0,30.51,SW,223,0.0,2.0,58,0.02,,,0.76,weatherlink.com 1.10,2013-01-18 22:02:00,
2013-01-18 17:17:00,37.8,24.0,30.52,SW,223,0.0,1.0,59,0.01,,,0.76,weatherlink.com 1.10,2013-01-18 22:17:00,
2013-01-18 17:32:00,36.9,26.0,30.52,SW,223,0.0,0.0,65,0.01,,,0.76,weatherlink.com 1.10,2013-01-18 22:32:00,
2013-01-18 17:47:00,35.6,26.0,30.52,SW,223,0.0,0.0,69,0.00,,,0.76,weatherlink.com 1.10,2013-01-18 22:47:00,
2013-01-18 18:02:00,34.6,26.0,30.53,SW,223,0.0,0.0,72,0.00,,,0.76,weatherlink.com 1.10,2013-01-18 23:02:00,
2013-01-18 18:17:00,33.8,26.0,30.53,SW,223,0.0,0.0,74,0.00,,,0.76,weatherlink.com 1.10,2013-01-18 23:17:00,
2013-01-18 18:32:00,33.0,25.0,30.54,SW,221,0.0,2.0,73,0.00,,,0.76,weatherlink.com 1.10,2013-01-18 23:32:00,
2013-01-18 18:47:00,32.6,26.0,30.54,SW,221,0.0,1.0,76,0.01,,,0.77,weatherlink.com 1.10,2013-01-18 23:47:00,
2013-01-18 19:02:00,32.1,26.0,30.54,SW,221,0.0,0.0,79,0.01,,,0.77,weatherlink.com 1.10,2013-01-19 00:02:00,
2013-01-18 19:17:00,31.5,25.0,30.54,SW,221,0.0,0.0,77,0.01,,,0.77,weatherlink.com 1.10,2013-01-19 00:17:00,
2013-01-18 19:32:00,31.4,26.0,30.54,SW,221,1.0,2.0,81,0.01,,,0.77,weatherlink.com 1.10,2013-01-19 00:32:00,
2013-01-18 19:47:00,30.9,26.0,30.54,SW,221,0.0,0.0,81,0.00,,,0.77,weatherlink.com 1.10,2013-01-19 00:47:00,
2013-01-18 20:02:00,30.6,25.0,30.54,SW,221,0.0,0.0,80,0.00,,,0.77,weatherlink.com 1.10,2013-01-19 01:02:00,
2013-01-18 20:17:00,30.2,25.0,30.54,SW,221,0.0,1.0,81,0.00,,,0.77,weatherlink.com 1.10,2013-01-19 01:17:00,
2013-01-18 20:32:00,29.7,24.0,30.54,SW,221,0.0,1.0,80,0.00,,,0.77,weatherlink.com 1.10,2013-01-19 01:32:00,
2013-01-18 20:47:00,29.4,25.0,30.53,SW,221,0.0,0.0,83,0.00,,,0.77,weatherlink.com 1.10,2013-01-19 01:47:00,
2013-01-18 21:02:00,29.1,24.0,30.53,SW,220,0.0,2.0,82,0.00,,,0.77,weatherlink.com 1.10,2013-01-19 02:02:00,
2013-01-18 21:17:00,29.2,25.0,30.53,SW,220,1.0,1.0,84,0.00,,,0.77,weatherlink.com 1.10,2013-01-19 02:17:00,
2013-01-18 21:32:00,29.0,25.0,30.53,SW,220,0.0,0.0,84,0.00,,,0.77,weatherlink.com 1.10,2013-01-19 02:32:00,
2013-01-18 21:47:00,29.3,24.0,30.53,SSW,194,1.0,2.0,82,0.00,,,0.77,weatherlink.com 1.10,2013-01-19 02:47:00,
2013-01-18 22:02:00,29.5,24.0,30.53,South,188,2.0,2.0,80,0.00,,,0.77,weatherlink.com 1.10,2013-01-19 03:02:00,
2013-01-18 22:17:00,29.6,25.0,30.52,SSE,148,1.0,2.0,82,0.00,,,0.77,weatherlink.com 1.10,2013-01-19 03:17:00,
2013-01-18 22:32:00,29.3,24.0,30.52,SE,136,0.0,1.0,82,0.00,,,0.77,weatherlink.com 1.10,2013-01-19 03:32:00,
2013-01-18 22:47:00,29.0,24.0,30.52,SE,136,0.0,1.0,82,0.00,,,0.77,weatherlink.com 1.10,2013-01-19 03:47:00,
2013-01-18 23:02:00,28.5,24.0,30.51,SE,136,0.0,0.0,84,0.00,,,0.77,weatherlink.com 1.10,2013-01-19 04:02:00,
2013-01-18 23:17:00,28.3,24.0,30.51,SE,136,1.0,2.0,84,0.00,,,0.77,weatherlink.com 1.10,2013-01-19 04:17:00,
2013-01-18 23:32:00,28.2,24.0,30.51,SE,136,0.0,2.0,85,0.00,,,0.77,weatherlink.com 1.10,2013-01-19 04:32:00,
2013-01-18 23:47:00,28.5,24.0,30.50,SE,136,0.0,1.0,84,0.00,,,0.77,weatherlink.com 1.10,2013-01-19 04:47:00,